createdAt,value
2022-10-27T00:02:03.343Z,101541.91
2022-10-27T00:05:05.872Z,101540.56
2022-10-27T00:08:08.435Z,101548.59
2022-10-27T00:11:11.036Z,101542.13
2022-10-27T00:14:13.544Z,101554.47
2022-10-27T00:17:15.958Z,101557.59
2022-10-27T00:20:18.468Z,101558.69
2022-10-27T00:23:20.781Z,101561.03
2022-10-27T00:26:23.285Z,101561.53
2022-10-27T00:29:25.745Z,101566.03
2022-10-27T00:32:28.176Z,101561.13
2022-10-27T00:35:30.549Z,101561.34
2022-10-27T00:38:33.638Z,101551.84
2022-10-27T00:41:40.946Z,101559.13
2022-10-27T00:44:47.651Z,101557.66
2022-10-27T00:47:50.313Z,101555.13
2022-10-27T00:50:53.631Z,101560.25
2022-10-27T00:53:56.506Z,101549.97
2022-10-27T00:56:59.271Z,101558.38
2022-10-27T01:00:03.859Z,101558.56
2022-10-27T01:03:08.753Z,101554.69
2022-10-27T01:06:12.630Z,101555.53
2022-10-27T01:09:15.055Z,101552.75
2022-10-27T01:12:17.527Z,101558.81
2022-10-27T01:15:22.512Z,101554.53
2022-10-27T01:18:34.470Z,101548.75
2022-10-27T01:22:02.859Z,101541.09
2022-10-27T01:25:39.131Z,101544.13
2022-10-27T01:28:54.547Z,101544.84
2022-10-27T01:32:34.809Z,101545.94
2022-10-27T01:35:43.175Z,101548.56
2022-10-27T01:38:58.937Z,101547.50
2022-10-27T01:42:04.783Z,101543.91
2022-10-27T01:45:11.566Z,101545.38
2022-10-27T01:48:15.559Z,101547.00
2022-10-27T01:51:18.113Z,101555.94
2022-10-27T01:54:21.363Z,101543.97
2022-10-27T01:57:52.828Z,101550.75
2022-10-27T02:01:24.523Z,101554.44
2022-10-27T02:04:35.983Z,101553.06
2022-10-27T02:08:01.917Z,101551.06
2022-10-27T02:11:06.378Z,101552.81
2022-10-27T02:14:09.580Z,101556.25
2022-10-27T02:17:13.967Z,101556.03
2022-10-27T02:20:23.388Z,101554.78
2022-10-27T02:23:26.038Z,101564.56
2022-10-27T02:26:38.913Z,101562.06
2022-10-27T02:29:48.439Z,101563.84
2022-10-27T02:32:51.727Z,101570.59
2022-10-27T02:35:56.053Z,101570.25
2022-10-27T02:38:58.450Z,101560.47
2022-10-27T02:42:02.632Z,101557.41
2022-10-27T02:45:05.363Z,101558.88
2022-10-27T02:48:07.696Z,101570.78
2022-10-27T02:51:10.155Z,101576.59
2022-10-27T02:54:12.524Z,101582.47
2022-10-27T02:57:16.699Z,101593.13
2022-10-27T03:00:19.209Z,101589.41
2022-10-27T03:03:22.776Z,101586.66
2022-10-27T03:06:25.238Z,101587.16
2022-10-27T03:09:27.920Z,101590.22
2022-10-27T03:12:30.260Z,101589.59
2022-10-27T03:15:34.559Z,101590.53
2022-10-27T03:18:36.956Z,101597.31
2022-10-27T03:21:39.310Z,101598.22
2022-10-27T03:24:41.723Z,101613.00
2022-10-27T03:27:45.191Z,101607.34
2022-10-27T03:30:47.602Z,101607.34
2022-10-27T03:33:51.650Z,101615.25
2022-10-27T03:36:54.023Z,101619.47
2022-10-27T03:39:56.483Z,101622.66
2022-10-27T03:42:59.187Z,101613.66
2022-10-27T03:46:01.697Z,101612.56
2022-10-27T03:49:04.415Z,101611.06
2022-10-27T03:52:06.955Z,101601.41
2022-10-27T03:55:09.457Z,101605.81
2022-10-27T03:58:16.531Z,101608.25
2022-10-27T04:01:19.702Z,101606.53
2022-10-27T04:04:22.091Z,101605.31
2022-10-27T04:07:24.455Z,101608.66
2022-10-27T04:10:27.213Z,101613.06
2022-10-27T04:13:30.860Z,101613.00
2022-10-27T04:16:33.496Z,101625.44
2022-10-27T04:19:35.873Z,101619.34
2022-10-27T04:22:39.387Z,101621.56
2022-10-27T04:25:41.720Z,101616.56
2022-10-27T04:28:44.258Z,101624.34
2022-10-27T04:31:46.645Z,101623.94
2022-10-27T04:34:49.023Z,101633.81
2022-10-27T04:37:51.783Z,101636.47
2022-10-27T04:40:54.322Z,101636.97
2022-10-27T04:43:56.680Z,101646.53
2022-10-27T04:46:59.019Z,101648.44
2022-10-27T04:50:01.409Z,101651.78
2022-10-27T04:53:04.150Z,101657.88
2022-10-27T04:56:06.863Z,101651.03
2022-10-27T04:59:09.328Z,101657.88
2022-10-27T05:02:11.822Z,101666.38
2022-10-27T05:05:14.545Z,101666.22
2022-10-27T05:08:16.891Z,101668.97
2022-10-27T05:11:19.273Z,101667.91
2022-10-27T05:14:22.204Z,101679.06
2022-10-27T05:17:24.649Z,101673.69
2022-10-27T05:20:27.462Z,101676.91
2022-10-27T05:23:29.916Z,101676.97
2022-10-27T05:26:35.530Z,101686.91
2022-10-27T05:29:40.928Z,101679.84
2022-10-27T05:32:45.058Z,101694.06
2022-10-27T05:35:50.966Z,101695.56
2022-10-27T05:38:53.563Z,101702.44
2022-10-27T05:41:56.084Z,101705.91
2022-10-27T05:44:58.512Z,101708.25
2022-10-27T05:48:06.794Z,101712.94
2022-10-27T05:51:09.204Z,101708.06
2022-10-27T05:54:11.710Z,101709.50
2022-10-27T05:57:14.077Z,101714.38
2022-10-27T06:00:18.720Z,101715.81
2022-10-27T06:03:25.367Z,101722.56
2022-10-27T06:06:28.025Z,101717.13
2022-10-27T06:09:30.415Z,101720.31
2022-10-27T06:12:32.931Z,101725.81
2022-10-27T06:15:35.453Z,101734.81
2022-10-27T06:18:37.926Z,101740.44
2022-10-27T06:21:40.356Z,101737.34
2022-10-27T06:24:42.807Z,101744.66
2022-10-27T06:27:45.473Z,101746.69
2022-10-27T06:30:48.010Z,101749.84
2022-10-27T06:33:50.382Z,101751.63
2022-10-27T06:36:52.960Z,101750.50
2022-10-27T06:39:55.820Z,101744.84
2022-10-27T06:43:07.180Z,101749.06
2022-10-27T06:46:10.211Z,101749.75
2022-10-27T06:49:15.404Z,101757.44
2022-10-27T06:52:20.072Z,101760.88
2022-10-27T06:55:22.584Z,101764.22
2022-10-27T06:58:25.063Z,101762.13
2022-10-27T07:01:28.738Z,101765.34
2022-10-27T07:04:31.258Z,101766.97
2022-10-27T07:07:33.757Z,101766.53
2022-10-27T07:10:37.723Z,101762.97
2022-10-27T07:13:40.235Z,101765.34
2022-10-27T07:16:42.641Z,101771.09
2022-10-27T07:19:44.954Z,101780.66
2022-10-27T07:22:47.537Z,101783.78
2022-10-27T07:25:50.837Z,101781.19
2022-10-27T07:28:53.572Z,101784.34
2022-10-27T07:31:56.186Z,101787.06
2022-10-27T07:34:58.665Z,101786.47
2022-10-27T07:38:01.360Z,101790.94
2022-10-27T07:41:03.752Z,101790.59
2022-10-27T07:44:06.088Z,101803.22
2022-10-27T07:47:08.442Z,101795.66
2022-10-27T07:50:11.273Z,101799.81
2022-10-27T07:53:17.941Z,101804.34
2022-10-27T07:56:20.297Z,101805.38
2022-10-27T07:59:22.643Z,101803.03
2022-10-27T08:02:25.230Z,101808.22
2022-10-27T08:05:30.009Z,101811.44
2022-10-27T08:08:33.369Z,101813.09
2022-10-27T08:11:35.823Z,101819.47
2022-10-27T08:14:38.283Z,101815.78
2022-10-27T08:17:40.871Z,101810.88
2022-10-27T08:21:17.428Z,101819.88
2022-10-27T08:24:19.909Z,101822.66
2022-10-27T08:27:22.402Z,101822.47
2022-10-27T08:30:27.587Z,101823.69
2022-10-27T08:33:30.060Z,101825.81
2022-10-27T08:36:38.998Z,101828.69
2022-10-27T08:39:41.402Z,101822.84
2022-10-27T08:42:59.256Z,101823.97
2022-10-27T08:46:15.242Z,101821.47
2022-10-27T08:49:51.528Z,101820.25
2022-10-27T08:53:04.953Z,101817.13
2022-10-27T08:56:11.889Z,101812.66
2022-10-27T08:59:24.389Z,101819.59
2022-10-27T09:02:39.126Z,101823.19
2022-10-27T09:05:50.827Z,101817.91
2022-10-27T09:09:12.020Z,101829.47
2022-10-27T09:12:44.377Z,101832.84
2022-10-27T09:15:49.649Z,101827.66
2022-10-27T09:18:56.021Z,101826.44
2022-10-27T09:22:02.957Z,101836.16
2022-10-27T09:25:12.811Z,101829.44
2022-10-27T09:28:52.204Z,101834.81
2022-10-27T09:32:05.253Z,101831.28
2022-10-27T09:35:16.357Z,101828.41
2022-10-27T09:38:26.019Z,101834.19
2022-10-27T09:41:28.523Z,101832.75
2022-10-27T09:44:31.265Z,101829.44
2022-10-27T09:47:38.819Z,101830.28
2022-10-27T09:50:49.790Z,101833.75
2022-10-27T09:54:05.792Z,101834.19
2022-10-27T09:57:18.927Z,101835.97
2022-10-27T10:00:22.031Z,101834.44
2022-10-27T10:03:25.057Z,101832.50
2022-10-27T10:06:38.789Z,101834.53
2022-10-27T10:09:41.516Z,101827.56
2022-10-27T10:12:44.105Z,101833.28
2022-10-27T10:15:46.939Z,101828.06
2022-10-27T10:19:24.663Z,101824.13
2022-10-27T10:22:30.408Z,101825.34
2022-10-27T10:25:34.070Z,101827.44
2022-10-27T10:28:42.358Z,101818.84
2022-10-27T10:31:45.448Z,101828.56
2022-10-27T10:34:48.508Z,101822.13
2022-10-27T10:37:51.369Z,101825.69
2022-10-27T10:41:17.102Z,101820.63
2022-10-27T10:44:19.665Z,101822.16
2022-10-27T10:47:29.186Z,101817.78
2022-10-27T10:50:42.308Z,101817.13
2022-10-27T10:53:53.290Z,101810.75
2022-10-27T10:56:56.122Z,101821.28
2022-10-27T10:59:58.950Z,101814.53
2022-10-27T11:03:05.565Z,101811.06
2022-10-27T11:06:17.585Z,101806.94
2022-10-27T11:09:20.552Z,101801.06
2022-10-27T11:12:29.674Z,101807.56
2022-10-27T11:15:44.379Z,101807.09
2022-10-27T11:18:55.909Z,101807.38
2022-10-27T11:22:06.135Z,101802.84
2022-10-27T11:25:18.656Z,101816.63
2022-10-27T11:28:29.409Z,101814.88
2022-10-27T11:31:42.404Z,101813.34
2022-10-27T11:35:07.560Z,101811.31
2022-10-27T11:38:30.794Z,101811.06
2022-10-27T11:41:42.256Z,101813.28
2022-10-27T11:45:02.837Z,101813.13
2022-10-27T11:48:24.384Z,101812.47
2022-10-27T11:51:37.220Z,101810.53
2022-10-27T11:54:40.183Z,101799.53
2022-10-27T11:57:56.596Z,101815.28
2022-10-27T12:01:30.491Z,101810.22
2022-10-27T12:04:48.070Z,101797.38
2022-10-27T12:07:53.689Z,101800.75
2022-10-27T12:11:19.059Z,101800.25
2022-10-27T12:14:50.498Z,101797.72
2022-10-27T12:18:06.013Z,101787.94
2022-10-27T12:21:25.485Z,101792.28
2022-10-27T12:24:34.096Z,101789.72
2022-10-27T12:27:41.407Z,101784.59
2022-10-27T12:30:47.419Z,101782.22
2022-10-27T12:33:55.971Z,101783.22
2022-10-27T12:37:23.380Z,101792.13
2022-10-27T12:40:39.358Z,101788.00
2022-10-27T12:44:05.890Z,101789.31
2022-10-27T12:47:43.280Z,101792.31
2022-10-27T12:51:14.809Z,101787.53
2022-10-27T12:55:01.626Z,101790.97
2022-10-27T12:58:14.161Z,101795.25
2022-10-27T13:01:28.949Z,101786.75
2022-10-27T13:05:11.886Z,101786.84
2022-10-27T13:08:14.252Z,101784.41
2022-10-27T13:11:32.831Z,101787.53
2022-10-27T13:14:35.146Z,101782.56
2022-10-27T13:18:22.505Z,101788.78
2022-10-27T13:21:34.096Z,101788.44
2022-10-27T13:24:54.869Z,101797.97
2022-10-27T13:28:17.150Z,101792.16
2022-10-27T13:31:24.563Z,101795.44
2022-10-27T13:34:27.001Z,101799.91
2022-10-27T13:37:41.370Z,101797.53
2022-10-27T13:40:43.888Z,101798.38
2022-10-27T13:43:48.087Z,101797.31
2022-10-27T13:47:04.503Z,101800.25
2022-10-27T13:50:33.837Z,101798.53
2022-10-27T13:53:36.164Z,101796.09
2022-10-27T13:56:39.898Z,101792.22
2022-10-27T13:59:45.303Z,101793.81
2022-10-27T14:03:06.090Z,101792.09
2022-10-27T14:06:08.394Z,101790.25
2022-10-27T14:09:35.776Z,101787.53
2022-10-27T14:12:38.268Z,101789.75
2022-10-27T14:15:40.792Z,101789.94
2022-10-27T14:18:43.356Z,101792.28
2022-10-27T14:21:47.587Z,101796.28
2022-10-27T14:24:56.984Z,101783.88
2022-10-27T14:28:20.497Z,101790.47
2022-10-27T14:31:26.452Z,101789.69
2022-10-27T14:34:28.822Z,101800.78
2022-10-27T14:37:35.278Z,101802.06
2022-10-27T14:40:39.385Z,101794.88
2022-10-27T14:43:44.633Z,101792.97
2022-10-27T14:46:49.314Z,101788.50
2022-10-27T14:49:55.893Z,101794.72
2022-10-27T14:53:00.823Z,101786.59
2022-10-27T14:56:06.515Z,101788.16
2022-10-27T14:59:19.591Z,101782.63
2022-10-27T15:02:23.054Z,101779.94
2022-10-27T15:05:31.942Z,101781.44
2022-10-27T15:08:35.499Z,101778.09
2022-10-27T15:11:37.970Z,101795.63
2022-10-27T15:14:40.461Z,101793.38
2022-10-27T15:17:42.989Z,101794.28
2022-10-27T15:20:45.697Z,101788.31
2022-10-27T15:23:51.106Z,101793.13
2022-10-27T15:26:54.392Z,101790.53
2022-10-27T15:29:57.243Z,101797.00
2022-10-27T15:32:59.921Z,101794.50
2022-10-27T15:36:18.991Z,101793.41
2022-10-27T15:39:21.478Z,101789.31
2022-10-27T15:42:35.928Z,101795.28
2022-10-27T15:45:45.759Z,101792.97
2022-10-27T15:49:14.812Z,101791.06
2022-10-27T15:52:22.557Z,101786.16
2022-10-27T15:55:27.408Z,101792.25
2022-10-27T15:58:38.560Z,101790.38
2022-10-27T16:01:43.577Z,101786.84
2022-10-27T16:04:49.661Z,101788.94
2022-10-27T16:07:52.561Z,101792.94
2022-10-27T16:10:55.177Z,101796.19
2022-10-27T16:13:59.788Z,101803.59
2022-10-27T16:17:02.130Z,101802.63
2022-10-27T16:20:10.862Z,101809.03
2022-10-27T16:23:15.662Z,101812.25
2022-10-27T16:26:21.299Z,101808.91
2022-10-27T16:29:27.342Z,101814.41
2022-10-27T16:32:32.459Z,101806.59
2022-10-27T16:35:34.820Z,101809.56
2022-10-27T16:38:37.156Z,101812.44
2022-10-27T16:41:39.590Z,101812.78
2022-10-27T16:44:42.195Z,101825.84
2022-10-27T16:47:48.721Z,101834.44
2022-10-27T16:50:51.115Z,101826.19
2022-10-27T16:53:53.567Z,101822.28
2022-10-27T16:56:56.137Z,101819.94
2022-10-27T16:59:58.514Z,101826.13
2022-10-27T17:03:01.096Z,101826.94
2022-10-27T17:06:04.557Z,101820.91
2022-10-27T17:09:08.331Z,101830.13
2022-10-27T17:12:10.743Z,101836.19
2022-10-27T17:15:13.297Z,101830.97
2022-10-27T17:18:15.871Z,101832.53
2022-10-27T17:21:18.441Z,101834.28
2022-10-27T17:24:20.962Z,101837.19
2022-10-27T17:27:23.421Z,101833.78
2022-10-27T17:30:25.844Z,101834.16
2022-10-27T17:33:28.525Z,101840.41
2022-10-27T17:36:31.025Z,101838.97
2022-10-27T17:39:33.502Z,101839.47
2022-10-27T17:42:36.184Z,101849.22
2022-10-27T17:45:38.782Z,101846.56
2022-10-27T17:48:47.024Z,101850.91
2022-10-27T17:51:49.663Z,101850.19
2022-10-27T17:54:52.095Z,101852.16
2022-10-27T17:57:54.993Z,101854.88
2022-10-27T18:01:11.711Z,101854.78
2022-10-27T18:04:14.454Z,101856.44
2022-10-27T18:07:17.392Z,101859.16
2022-10-27T18:10:19.929Z,101855.59
2022-10-27T18:13:22.475Z,101857.59
2022-10-27T18:16:27.585Z,101855.97
2022-10-27T18:19:30.205Z,101863.28
2022-10-27T18:22:32.814Z,101860.47
2022-10-27T18:25:35.405Z,101860.78
2022-10-27T18:31:45.602Z,101861.19
2022-10-27T18:34:48.151Z,101868.09
2022-10-27T18:37:50.823Z,101853.47
2022-10-27T18:40:57.311Z,101862.31
2022-10-27T18:43:59.885Z,101871.38
2022-10-27T18:47:02.298Z,101871.72
2022-10-27T18:50:08.093Z,101868.38
2022-10-27T18:53:12.997Z,101874.88
2022-10-27T18:56:15.673Z,101880.28
2022-10-27T18:59:18.394Z,101879.00
2022-10-27T19:02:21.548Z,101875.03
2022-10-27T19:05:24.251Z,101871.25
2022-10-27T19:08:27.125Z,101880.13
2022-10-27T19:11:30.964Z,101887.34
2022-10-27T19:14:33.354Z,101881.03
2022-10-27T19:17:35.891Z,101882.03
2022-10-27T19:20:41.611Z,101885.72
2022-10-27T19:23:45.641Z,101873.91
2022-10-27T19:26:48.179Z,101882.91
2022-10-27T19:29:50.619Z,101884.00
2022-10-27T19:32:53.464Z,101883.16
2022-10-27T19:36:01.656Z,101880.81
2022-10-27T19:39:08.464Z,101877.34
2022-10-27T19:42:11.152Z,101882.59
2022-10-27T19:45:13.822Z,101877.53
2022-10-27T19:48:17.386Z,101884.34
2022-10-27T19:51:22.771Z,101884.41
2022-10-27T19:54:25.336Z,101881.97
2022-10-27T19:57:27.855Z,101886.38
2022-10-27T20:00:30.611Z,101881.28
2022-10-27T20:03:33.593Z,101877.09
2022-10-27T20:06:36.516Z,101877.81
2022-10-27T20:09:39.058Z,101877.06
2022-10-27T20:12:41.537Z,101876.19
2022-10-27T20:15:43.938Z,101869.47
2022-10-27T20:18:46.769Z,101882.44
2022-10-27T20:21:49.802Z,101880.94
2022-10-27T20:24:55.083Z,101874.97
2022-10-27T20:27:57.695Z,101883.09
2022-10-27T20:31:05.147Z,101884.91
2022-10-27T20:34:10.421Z,101884.94
2022-10-27T20:37:12.878Z,101890.28
2022-10-27T20:40:15.350Z,101889.31
2022-10-27T20:43:17.721Z,101891.63
2022-10-27T20:46:20.893Z,101886.28
2022-10-27T20:49:23.338Z,101885.38
2022-10-27T20:52:25.712Z,101888.06
2022-10-27T20:55:28.018Z,101882.88
2022-10-27T20:58:31.148Z,101892.28
2022-10-27T21:01:35.107Z,101888.97
2022-10-27T21:04:37.659Z,101887.41
2022-10-27T21:07:40.093Z,101897.75
2022-10-27T21:10:42.482Z,101887.66
2022-10-27T21:13:49.239Z,101897.38
2022-10-27T21:16:52.262Z,101890.19
2022-10-27T21:19:54.731Z,101890.47
2022-10-27T21:22:57.325Z,101888.34
2022-10-27T21:26:02.611Z,101886.56
2022-10-27T21:29:05.084Z,101895.03
2022-10-27T21:32:07.464Z,101894.00
2022-10-27T21:35:09.946Z,101879.97
2022-10-27T21:38:12.324Z,101892.25
2022-10-27T21:41:16.400Z,101889.66
2022-10-27T21:44:19.096Z,101887.41
2022-10-27T21:47:21.448Z,101887.84
2022-10-27T21:50:24.228Z,101886.75
2022-10-27T21:53:26.984Z,101882.13
2022-10-27T21:56:31.335Z,101881.63
2022-10-27T21:59:33.729Z,101886.66
2022-10-27T22:02:36.107Z,101885.09
2022-10-27T22:05:38.480Z,101880.22
2022-10-27T22:08:40.844Z,101883.94
2022-10-27T22:11:43.282Z,101887.59
2022-10-27T22:14:45.620Z,101889.22
2022-10-27T22:17:47.993Z,101894.63
2022-10-27T22:20:50.355Z,101899.06
2022-10-27T22:23:53.123Z,101899.25
2022-10-27T22:26:55.515Z,101902.84
2022-10-27T22:29:57.943Z,101899.56
2022-10-27T22:33:01.037Z,101897.81
2022-10-27T22:36:08.666Z,101891.09
2022-10-27T22:39:12.676Z,101900.63
2022-10-27T22:42:15.051Z,101902.56
2022-10-27T22:45:17.409Z,101902.72
2022-10-27T22:48:21.302Z,101901.69
2022-10-27T22:51:25.819Z,101904.69
2022-10-27T22:54:28.131Z,101903.91
2022-10-27T22:57:30.598Z,101906.66
2022-10-27T23:00:33.397Z,101904.44
2022-10-27T23:03:36.328Z,101906.63
2022-10-27T23:06:39.048Z,101907.66
2022-10-27T23:09:41.820Z,101901.16
2022-10-27T23:12:44.147Z,101902.41
2022-10-27T23:15:54.644Z,101901.66
2022-10-27T23:19:00.787Z,101901.66
2022-10-27T23:22:03.203Z,101902.56
2022-10-27T23:25:06.431Z,101914.50
2022-10-27T23:28:08.849Z,101912.69
2022-10-27T23:31:11.214Z,101909.34
2022-10-27T23:34:13.763Z,101918.56
2022-10-27T23:37:16.125Z,101925.16
2022-10-27T23:40:18.582Z,101919.09
2022-10-27T23:43:21.418Z,101914.38
2022-10-27T23:46:25.458Z,101915.44
2022-10-27T23:49:27.805Z,101914.94
2022-10-27T23:52:30.489Z,101911.13
2022-10-27T23:55:32.811Z,101923.28
2022-10-27T23:58:37.360Z,101924.00
